createdAt,value
2018-01-29T00:03:14.180Z,10.00
2018-01-29T00:05:41.700Z,10.00
2018-01-29T00:08:10.006Z,10.00
2018-01-29T00:10:37.585Z,10.00
2018-01-29T00:13:05.124Z,10.00
2018-01-29T00:15:32.683Z,10.00
2018-01-29T00:18:00.224Z,10.00
2018-01-29T00:20:28.564Z,10.00
2018-01-29T00:22:56.117Z,10.00
2018-01-29T00:25:23.689Z,10.00
2018-01-29T00:27:51.189Z,10.00
2018-01-29T00:30:18.720Z,10.00
2018-01-29T00:32:47.062Z,10.00
2018-01-29T00:35:14.612Z,10.00
2018-01-29T00:37:42.172Z,10.00
2018-01-29T00:40:09.706Z,10.00
2018-01-29T00:42:37.813Z,10.00
2018-01-29T00:45:05.348Z,10.00
2018-01-29T00:47:32.898Z,10.00
2018-01-29T00:50:00.472Z,10.00
2018-01-29T00:52:28.008Z,10.00
2018-01-29T00:54:55.753Z,10.00
2018-01-29T00:57:24.060Z,10.00
2018-01-29T00:59:51.693Z,10.00
2018-01-29T01:02:20.029Z,10.00
2018-01-29T01:04:47.566Z,10.00
2018-01-29T01:07:15.136Z,10.00
2018-01-29T01:09:44.794Z,10.00
2018-01-29T01:12:13.149Z,10.00
2018-01-29T01:14:40.684Z,10.00
2018-01-29T01:17:08.217Z,10.00
2018-01-29T01:19:35.794Z,10.00
2018-01-29T01:22:03.337Z,10.00
2018-01-29T01:24:31.332Z,10.00
2018-01-29T01:26:58.868Z,10.00
2018-01-29T01:29:26.400Z,10.00
2018-01-29T01:31:53.961Z,10.00
2018-01-29T01:34:22.389Z,10.00
2018-01-29T01:36:49.981Z,10.00
2018-01-29T01:39:17.511Z,10.00
2018-01-29T01:41:45.069Z,10.00
2018-01-29T01:44:12.605Z,10.00
2018-01-29T01:46:40.130Z,10.00
2018-01-29T01:49:08.460Z,10.10
2018-01-29T01:51:35.985Z,10.00
2018-01-29T01:54:03.553Z,10.00
2018-01-29T01:56:31.083Z,10.10
2018-01-29T01:58:58.660Z,10.10
2018-01-29T02:01:26.962Z,10.10
2018-01-29T02:03:54.568Z,10.10
2018-01-29T02:06:22.113Z,10.10
2018-01-29T02:08:49.640Z,10.10
2018-01-29T02:11:17.210Z,10.10
2018-01-29T02:13:44.762Z,10.10
2018-01-29T02:16:12.432Z,10.10
2018-01-29T02:18:39.958Z,10.10
2018-01-29T02:21:07.737Z,10.10
2018-01-29T02:23:35.308Z,10.10
2018-01-29T02:26:02.840Z,10.10
2018-01-29T02:28:30.418Z,10.10
2018-01-29T02:30:58.589Z,10.10
2018-01-29T02:33:26.157Z,10.10
2018-01-29T02:35:53.688Z,10.10
2018-01-29T02:38:21.257Z,10.10
2018-01-29T02:40:48.798Z,10.10
2018-01-29T02:43:16.415Z,10.10
2018-01-29T02:45:44.012Z,10.00
2018-01-29T02:48:12.312Z,10.00
2018-01-29T02:50:39.878Z,10.00
2018-01-29T02:53:07.408Z,10.00
2018-01-29T02:55:35.785Z,10.00
2018-01-29T02:58:06.042Z,10.00
2018-01-29T03:00:34.030Z,10.00
2018-01-29T03:03:01.558Z,10.00
2018-01-29T03:05:29.091Z,10.00
2018-01-29T03:07:56.690Z,10.00
2018-01-29T03:10:24.222Z,10.00
2018-01-29T03:12:51.798Z,10.00
2018-01-29T03:15:19.322Z,10.00
2018-01-29T03:17:47.704Z,10.00
2018-01-29T03:20:15.337Z,10.00
2018-01-29T03:22:42.838Z,10.00
2018-01-29T03:25:11.173Z,10.00
2018-01-29T03:27:38.706Z,10.00
2018-01-29T03:30:06.285Z,10.10
2018-01-29T03:32:33.835Z,10.00
2018-01-29T03:35:01.397Z,10.00
2018-01-29T03:37:28.944Z,10.00
2018-01-29T03:39:56.689Z,10.00
2018-01-29T03:42:24.360Z,10.00
2018-01-29T03:44:51.911Z,10.00
2018-01-29T03:47:19.510Z,10.00
2018-01-29T03:49:47.080Z,10.00
2018-01-29T03:52:15.880Z,10.00
2018-01-29T03:54:43.479Z,10.00
2018-01-29T03:57:11.470Z,10.00
2018-01-29T03:59:39.022Z,10.00
2018-01-29T04:02:06.548Z,10.00
2018-01-29T04:04:34.112Z,10.00
2018-01-29T04:07:02.431Z,10.10
2018-01-29T04:09:30.206Z,10.00
2018-01-29T04:11:57.765Z,10.10
2018-01-29T04:14:25.360Z,10.10
2018-01-29T04:16:53.680Z,10.10
2018-01-29T04:19:21.213Z,10.00
2018-01-29T04:21:48.784Z,10.10
2018-01-29T04:24:16.317Z,10.10
2018-01-29T04:26:44.037Z,10.10
2018-01-29T04:29:11.564Z,10.10
2018-01-29T04:31:39.174Z,10.10
2018-01-29T04:34:06.781Z,10.10
2018-01-29T04:36:34.317Z,10.10
2018-01-29T04:39:01.890Z,10.10
2018-01-29T04:41:29.424Z,10.10
2018-01-29T04:43:57.029Z,10.10
2018-01-29T04:46:26.663Z,10.10
2018-01-29T04:48:54.420Z,10.10
2018-01-29T04:51:21.954Z,10.10
2018-01-29T04:53:49.962Z,10.10
2018-01-29T04:56:17.495Z,10.00
2018-01-29T04:58:45.181Z,10.00
2018-01-29T05:01:12.777Z,10.00
2018-01-29T05:03:40.318Z,10.00
2018-01-29T05:06:09.406Z,10.00
2018-01-29T05:08:36.949Z,10.00
2018-01-29T05:11:04.534Z,10.00
2018-01-29T05:13:32.069Z,10.00
2018-01-29T05:15:59.712Z,10.00
2018-01-29T05:18:27.283Z,10.10
2018-01-29T05:20:54.814Z,10.10
2018-01-29T05:23:22.388Z,10.00
2018-01-29T05:25:49.924Z,10.00
2018-01-29T05:28:17.507Z,10.00
2018-01-29T05:30:45.040Z,10.00
2018-01-29T05:33:12.637Z,10.00
2018-01-29T05:35:55.057Z,10.00
2018-01-29T05:38:22.645Z,9.90
2018-01-29T05:40:50.178Z,9.90
2018-01-29T05:43:17.724Z,9.80
2018-01-29T05:45:45.280Z,9.80
2018-01-29T05:48:12.808Z,9.80
2018-01-29T05:50:40.379Z,9.70
2018-01-29T05:53:07.904Z,9.70
2018-01-29T05:55:36.979Z,9.70
2018-01-29T05:58:04.508Z,9.60
2018-01-29T06:00:32.082Z,9.70
2018-01-29T06:02:59.694Z,9.60
2018-01-29T06:05:28.000Z,9.60
2018-01-29T06:07:55.565Z,9.60
2018-01-29T06:10:23.087Z,9.60
2018-01-29T06:12:51.415Z,9.70
2018-01-29T06:15:18.953Z,9.70
2018-01-29T06:17:46.521Z,9.70
2018-01-29T06:20:14.043Z,9.70
2018-01-29T06:22:41.743Z,9.80
2018-01-29T06:25:09.280Z,9.80
2018-01-29T06:27:36.838Z,9.80
2018-01-29T06:30:04.411Z,9.80
2018-01-29T06:32:32.035Z,9.80
2018-01-29T06:35:00.371Z,9.80
2018-01-29T06:37:27.913Z,9.80
2018-01-29T06:39:55.477Z,9.90
2018-01-29T06:42:23.009Z,9.90
2018-01-29T06:44:50.534Z,9.90
2018-01-29T06:47:18.106Z,9.90
2018-01-29T06:49:45.643Z,9.90
2018-01-29T06:52:13.940Z,9.90
2018-01-29T06:54:41.470Z,10.00
2018-01-29T06:57:09.040Z,10.00
2018-01-29T06:59:36.660Z,10.00
2018-01-29T07:02:04.243Z,10.00
2018-01-29T07:04:31.781Z,10.00
2018-01-29T07:06:59.321Z,10.00
2018-01-29T07:09:27.657Z,10.10
2018-01-29T07:11:55.196Z,10.00
2018-01-29T07:14:22.761Z,10.00
2018-01-29T07:16:50.290Z,10.10
2018-01-29T07:19:18.193Z,10.10
2018-01-29T07:21:45.721Z,10.10
2018-01-29T07:24:13.252Z,10.10
2018-01-29T07:26:40.823Z,10.10
2018-01-29T07:29:08.366Z,10.10
2018-01-29T07:31:35.942Z,10.10
2018-01-29T07:34:03.492Z,10.20
2018-01-29T07:36:31.074Z,10.20
2018-01-29T07:38:58.603Z,10.20
2018-01-29T07:41:26.138Z,10.20
2018-01-29T07:43:53.722Z,10.20
2018-01-29T07:46:21.266Z,10.20
2018-01-29T07:48:48.842Z,10.20
2018-01-29T07:51:16.370Z,10.30
2018-01-29T07:53:44.438Z,10.30
2018-01-29T07:56:11.975Z,10.30
2018-01-29T07:58:39.538Z,10.40
2018-01-29T08:01:07.122Z,10.40
2018-01-29T08:03:34.682Z,10.40
2018-01-29T08:06:02.279Z,10.50
2018-01-29T08:08:30.717Z,10.40
2018-01-29T08:10:58.445Z,10.50
2018-01-29T08:13:26.013Z,10.50
2018-01-29T08:15:53.561Z,10.50
2018-01-29T08:18:21.163Z,10.60
2018-01-29T08:20:48.713Z,10.50
2018-01-29T08:23:16.286Z,10.60
2018-01-29T08:25:43.838Z,10.60
2018-01-29T08:28:11.438Z,10.60
2018-01-29T08:30:38.983Z,10.60
2018-01-29T08:33:07.307Z,10.60
2018-01-29T08:35:36.911Z,10.60
2018-01-29T08:38:04.458Z,10.60
2018-01-29T08:40:32.043Z,10.60
2018-01-29T08:42:59.696Z,10.60
2018-01-29T08:45:27.793Z,10.70
2018-01-29T08:47:55.327Z,10.70
2018-01-29T08:50:23.025Z,10.70
2018-01-29T08:52:52.117Z,10.70
2018-01-29T08:55:19.838Z,10.70
2018-01-29T08:57:47.408Z,10.70
2018-01-29T09:00:14.941Z,10.70
2018-01-29T09:02:42.842Z,10.70
2018-01-29T09:05:10.453Z,10.70
2018-01-29T09:07:38.001Z,10.70
2018-01-29T09:10:05.589Z,10.80
2018-01-29T09:12:33.133Z,10.80
2018-01-29T09:15:01.486Z,10.80
2018-01-29T09:17:29.821Z,10.90
2018-01-29T09:19:57.557Z,10.90
2018-01-29T09:22:26.167Z,10.90
2018-01-29T09:24:53.770Z,10.90
2018-01-29T09:27:21.314Z,10.90
2018-01-29T09:29:49.178Z,10.90
2018-01-29T09:32:16.815Z,10.90
2018-01-29T09:34:44.535Z,10.90
2018-01-29T09:37:12.906Z,10.90
2018-01-29T09:39:41.210Z,10.90
2018-01-29T09:42:08.802Z,10.90
2018-01-29T09:44:36.658Z,10.90
2018-01-29T09:47:04.233Z,11.00
2018-01-29T09:49:31.786Z,10.90
2018-01-29T09:51:59.384Z,10.90
2018-01-29T09:54:26.922Z,11.00
2018-01-29T09:56:54.497Z,11.00
2018-01-29T09:59:22.055Z,11.00
2018-01-29T10:01:50.531Z,10.90
2018-01-29T10:04:18.124Z,11.00
2018-01-29T10:06:46.433Z,11.00
2018-01-29T10:09:14.090Z,11.00
2018-01-29T10:11:41.928Z,11.00
2018-01-29T10:14:10.560Z,11.00
2018-01-29T10:16:38.101Z,11.00
2018-01-29T10:19:05.637Z,11.00
2018-01-29T10:21:33.228Z,11.00
2018-01-29T10:24:00.757Z,11.10
2018-01-29T10:26:28.328Z,11.10
2018-01-29T10:28:55.858Z,11.20
2018-01-29T10:31:24.924Z,11.20
2018-01-29T10:33:52.464Z,11.20
2018-01-29T10:36:20.340Z,11.20
2018-01-29T10:38:47.875Z,11.20
2018-01-29T10:41:15.420Z,11.20
2018-01-29T10:43:42.984Z,11.20
2018-01-29T10:46:10.649Z,11.30
2018-01-29T10:48:38.318Z,11.20
2018-01-29T10:51:05.852Z,11.30
2018-01-29T10:53:33.426Z,11.20
2018-01-29T10:56:00.996Z,11.30
2018-01-29T10:58:28.560Z,11.30
2018-01-29T11:01:01.674Z,11.30
2018-01-29T11:03:29.964Z,11.30
2018-01-29T11:05:57.659Z,11.40
2018-01-29T11:08:25.969Z,11.60
2018-01-29T11:10:53.559Z,11.60
2018-01-29T11:13:21.108Z,11.70
2018-01-29T11:15:48.651Z,11.70
2018-01-29T11:18:16.514Z,11.80
2018-01-29T11:20:44.096Z,11.80
2018-01-29T11:23:11.835Z,11.80
2018-01-29T11:25:39.380Z,11.80
2018-01-29T11:28:06.956Z,11.80
2018-01-29T11:30:35.448Z,11.70
2018-01-29T11:33:03.034Z,11.70
2018-01-29T11:35:30.841Z,11.70
2018-01-29T11:37:58.393Z,11.80
2018-01-29T11:40:25.989Z,11.90
2018-01-29T11:42:53.528Z,11.80
2018-01-29T11:45:21.122Z,11.90
2018-01-29T11:47:48.767Z,11.80
2018-01-29T11:50:16.318Z,11.80
2018-01-29T11:52:44.167Z,11.80
2018-01-29T11:55:11.724Z,11.90
2018-01-29T11:57:41.013Z,12.00
2018-01-29T12:00:09.335Z,12.00
2018-01-29T12:02:36.988Z,12.00
2018-01-29T12:05:04.543Z,12.00
2018-01-29T12:07:32.109Z,11.90
2018-01-29T12:09:59.765Z,11.90
2018-01-29T12:12:27.326Z,11.90
2018-01-29T12:14:54.932Z,11.90
2018-01-29T12:17:22.492Z,11.90
2018-01-29T12:19:50.334Z,11.90
2018-01-29T12:22:18.381Z,11.90
2018-01-29T12:24:46.046Z,11.90
2018-01-29T12:27:13.653Z,11.90
2018-01-29T12:29:41.229Z,11.90
2018-01-29T12:32:09.729Z,12.00
2018-01-29T12:34:37.318Z,12.00
2018-01-29T12:37:05.750Z,12.00
2018-01-29T12:39:33.520Z,12.00
2018-01-29T12:42:02.170Z,12.00
2018-01-29T12:44:29.964Z,12.00
2018-01-29T12:46:57.528Z,12.00
2018-01-29T12:49:26.421Z,12.00
2018-01-29T12:51:54.789Z,12.00
2018-01-29T12:54:22.403Z,12.00
2018-01-29T12:56:50.160Z,12.00
2018-01-29T12:59:18.246Z,12.00
2018-01-29T13:01:45.815Z,12.00
2018-01-29T13:04:13.382Z,12.00
2018-01-29T13:06:40.976Z,12.00
2018-01-29T13:09:08.752Z,12.00
2018-01-29T13:11:37.200Z,12.00
2018-01-29T13:14:04.749Z,12.00
2018-01-29T13:16:32.580Z,12.00
2018-01-29T13:19:00.126Z,12.00
2018-01-29T13:21:27.662Z,12.00
2018-01-29T13:23:56.008Z,12.00
2018-01-29T13:26:23.546Z,12.00
2018-01-29T13:28:51.120Z,12.00
2018-01-29T13:31:18.669Z,12.00
2018-01-29T13:33:46.268Z,12.00
2018-01-29T13:36:13.841Z,11.90
2018-01-29T13:38:42.166Z,11.90
2018-01-29T13:41:09.765Z,11.90
2018-01-29T13:43:38.081Z,11.90
2018-01-29T13:46:05.874Z,11.90
2018-01-29T13:48:33.408Z,11.90
2018-01-29T13:51:00.988Z,11.90
2018-01-29T13:53:28.531Z,11.90
2018-01-29T13:55:56.066Z,11.90
2018-01-29T13:58:24.505Z,11.90
2018-01-29T14:00:52.055Z,11.90
2018-01-29T14:03:19.675Z,11.90
2018-01-29T14:05:47.204Z,12.00
2018-01-29T14:08:14.831Z,12.00
2018-01-29T14:10:42.377Z,12.00
2018-01-29T14:13:09.961Z,12.00
2018-01-29T14:15:37.508Z,12.00
2018-01-29T14:18:05.109Z,12.00
2018-01-29T14:20:33.521Z,11.90
2018-01-29T14:23:01.079Z,11.90
2018-01-29T14:25:28.711Z,11.90
2018-01-29T14:27:57.120Z,11.80
2018-01-29T14:30:24.685Z,11.80
2018-01-29T14:32:52.240Z,11.80
2018-01-29T14:35:19.809Z,11.80
2018-01-29T14:37:47.379Z,11.80
2018-01-29T14:40:14.953Z,11.80
2018-01-29T14:42:42.500Z,11.80
2018-01-29T14:45:10.038Z,11.80
2018-01-29T14:47:37.810Z,11.80
2018-01-29T14:50:05.470Z,11.80
2018-01-29T14:52:33.033Z,11.70
2018-01-29T14:55:00.601Z,11.70
2018-01-29T14:57:28.293Z,11.70
2018-01-29T14:59:55.893Z,11.70
2018-01-29T15:02:23.448Z,11.70
2018-01-29T15:04:51.038Z,11.70
2018-01-29T15:07:18.617Z,11.60
2018-01-29T15:09:46.213Z,11.60
2018-01-29T15:12:14.491Z,11.60
2018-01-29T15:14:43.185Z,11.50
2018-01-29T15:17:10.735Z,11.50
2018-01-29T15:19:38.284Z,11.50
2018-01-29T15:22:06.669Z,11.50
2018-01-29T15:24:34.226Z,11.50
2018-01-29T15:27:02.605Z,11.50
2018-01-29T15:29:30.140Z,11.50
2018-01-29T15:31:57.834Z,11.50
2018-01-29T15:34:26.167Z,11.50
2018-01-29T15:36:53.893Z,11.50
2018-01-29T15:39:21.695Z,11.50
2018-01-29T15:41:49.247Z,11.50
2018-01-29T15:44:16.859Z,11.50
2018-01-29T15:46:44.406Z,11.50
2018-01-29T15:49:11.989Z,11.40
2018-01-29T15:51:39.540Z,11.50
2018-01-29T15:54:07.845Z,11.50
2018-01-29T15:56:35.437Z,11.50
2018-01-29T15:59:03.003Z,11.40
2018-01-29T16:01:30.599Z,11.40
2018-01-29T16:03:58.900Z,11.40
2018-01-29T16:06:26.497Z,11.40
2018-01-29T16:08:54.238Z,11.40
2018-01-29T16:11:21.856Z,11.40
2018-01-29T16:13:50.178Z,11.40
2018-01-29T16:16:17.927Z,11.40
2018-01-29T16:18:45.537Z,11.40
2018-01-29T16:21:14.601Z,11.40
2018-01-29T16:23:42.195Z,11.30
2018-01-29T16:26:09.739Z,11.30
2018-01-29T16:28:37.466Z,11.40
2018-01-29T16:31:05.132Z,11.30
2018-01-29T16:33:33.018Z,11.30
2018-01-29T16:36:00.561Z,11.30
2018-01-29T16:38:28.310Z,11.30
2018-01-29T16:40:55.886Z,11.30
2018-01-29T16:43:23.450Z,11.30
2018-01-29T16:45:51.125Z,11.30
2018-01-29T16:48:18.699Z,11.30
2018-01-29T16:50:46.323Z,11.30
2018-01-29T16:53:13.860Z,11.30
2018-01-29T16:55:41.427Z,11.20
2018-01-29T16:58:09.023Z,11.30
2018-01-29T17:00:36.570Z,11.20
2018-01-29T17:03:04.159Z,11.20
2018-01-29T17:05:31.714Z,11.20
2018-01-29T17:07:59.319Z,11.20
2018-01-29T17:10:26.921Z,11.20
2018-01-29T17:12:54.563Z,11.20
2018-01-29T17:15:22.089Z,11.20
2018-01-29T17:17:50.406Z,11.20
2018-01-29T17:20:18.004Z,11.20
2018-01-29T17:22:45.563Z,11.10
2018-01-29T17:25:14.722Z,11.10
2018-01-29T17:27:42.383Z,11.10
2018-01-29T17:30:09.965Z,11.10
2018-01-29T17:32:37.559Z,11.10
2018-01-29T17:35:05.963Z,11.10
2018-01-29T17:37:33.525Z,11.10
2018-01-29T17:40:01.793Z,11.10
2018-01-29T17:42:29.343Z,11.10
2018-01-29T17:44:56.899Z,11.10
2018-01-29T17:47:25.287Z,11.00
2018-01-29T17:49:52.829Z,11.00
2018-01-29T17:52:21.214Z,11.10
2018-01-29T17:54:48.797Z,11.10
2018-01-29T17:57:16.337Z,11.00
2018-01-29T17:59:44.895Z,11.10
2018-01-29T18:02:12.449Z,11.00
2018-01-29T18:04:40.065Z,11.00
2018-01-29T18:07:07.607Z,11.10
2018-01-29T18:09:35.209Z,11.00
2018-01-29T18:12:02.753Z,11.00
2018-01-29T18:14:30.389Z,11.00
2018-01-29T18:16:59.695Z,11.00
2018-01-29T18:19:27.312Z,11.00
2018-01-29T18:21:54.902Z,11.00
2018-01-29T18:24:23.205Z,11.00
2018-01-29T18:26:50.795Z,11.00
2018-01-29T18:29:19.098Z,11.00
2018-01-29T18:31:47.478Z,11.00
2018-01-29T18:34:15.037Z,11.00
2018-01-29T18:36:43.397Z,11.00
2018-01-29T18:39:11.005Z,11.00
2018-01-29T18:41:38.562Z,11.00
2018-01-29T18:44:06.210Z,11.00
2018-01-29T18:46:33.774Z,10.90
2018-01-29T18:49:02.148Z,10.90
2018-01-29T18:51:29.701Z,10.90
2018-01-29T18:53:58.859Z,10.90
2018-01-29T18:56:26.440Z,10.90
2018-01-29T18:58:54.022Z,10.90
2018-01-29T19:01:21.598Z,10.80
2018-01-29T19:03:49.169Z,10.80
2018-01-29T19:06:16.767Z,10.80
2018-01-29T19:08:44.318Z,10.80
2018-01-29T19:11:11.860Z,10.70
2018-01-29T19:13:39.454Z,10.70
2018-01-29T19:16:07.114Z,10.70
2018-01-29T19:18:34.699Z,10.70
2018-01-29T19:21:03.017Z,10.70
2018-01-29T19:23:31.010Z,10.70
2018-01-29T19:25:58.561Z,10.80
2018-01-29T19:28:26.100Z,10.80
2018-01-29T19:30:53.702Z,10.80
2018-01-29T19:33:21.240Z,10.80
2018-01-29T19:35:48.901Z,10.80
2018-01-29T19:38:16.449Z,10.80
2018-01-29T19:40:44.037Z,10.80
2018-01-29T19:43:11.616Z,10.80
2018-01-29T19:45:39.184Z,10.80
2018-01-29T19:48:07.597Z,10.80
2018-01-29T19:50:36.061Z,10.80
2018-01-29T19:53:03.836Z,10.80
2018-01-29T19:55:31.419Z,10.90
2018-01-29T19:57:59.064Z,10.80
2018-01-29T20:00:26.643Z,10.70
2018-01-29T20:02:54.261Z,10.60
2018-01-29T20:05:22.755Z,10.40
2018-01-29T20:07:50.352Z,10.40
2018-01-29T20:10:17.938Z,10.30
2018-01-29T20:12:45.486Z,10.30
2018-01-29T20:15:13.068Z,10.30
2018-01-29T20:17:41.374Z,10.20
2018-01-29T20:20:08.968Z,10.20
2018-01-29T20:22:36.512Z,10.20
2018-01-29T20:25:04.126Z,10.20
2018-01-29T20:27:31.676Z,10.20
2018-01-29T20:29:59.426Z,10.20
2018-01-29T20:32:27.002Z,10.20
2018-01-29T20:34:55.320Z,10.20
2018-01-29T20:37:22.909Z,10.20
2018-01-29T20:39:50.460Z,10.20
2018-01-29T20:42:18.078Z,10.30
2018-01-29T20:44:46.428Z,10.30
2018-01-29T20:47:14.733Z,10.40
2018-01-29T20:49:42.328Z,10.30
2018-01-29T20:52:09.924Z,10.40
2018-01-29T20:54:37.541Z,10.40
2018-01-29T20:57:05.090Z,10.40
2018-01-29T20:59:32.669Z,10.50
2018-01-29T21:02:00.216Z,10.50
2018-01-29T21:04:28.190Z,10.50
2018-01-29T21:06:55.728Z,10.50
2018-01-29T21:09:23.268Z,10.50
2018-01-29T21:11:50.877Z,10.50
2018-01-29T21:14:18.417Z,10.50
2018-01-29T21:16:46.024Z,10.50
2018-01-29T21:19:15.071Z,10.50
2018-01-29T21:21:42.682Z,10.60
2018-01-29T21:24:10.240Z,10.50
2018-01-29T21:26:39.285Z,10.50
2018-01-29T21:29:06.924Z,10.50
2018-01-29T21:31:35.237Z,10.40
2018-01-29T21:34:03.149Z,10.40
2018-01-29T21:36:30.698Z,10.40
2018-01-29T21:38:58.224Z,10.30
2018-01-29T21:41:25.802Z,10.30
2018-01-29T21:43:53.307Z,10.30
2018-01-29T21:46:20.906Z,10.30
2018-01-29T21:48:48.452Z,10.30
2018-01-29T21:51:16.036Z,10.30
2018-01-29T21:53:43.599Z,10.30
2018-01-29T21:56:11.338Z,10.30
2018-01-29T21:58:39.042Z,10.40
2018-01-29T22:01:06.625Z,10.40
2018-01-29T22:03:34.226Z,10.40
2018-01-29T22:06:01.776Z,10.50
2018-01-29T22:08:29.515Z,10.50
2018-01-29T22:10:57.928Z,10.50
2018-01-29T22:13:25.521Z,10.50
2018-01-29T22:15:53.200Z,10.50
2018-01-29T22:18:20.724Z,10.60
2018-01-29T22:20:48.393Z,10.60
2018-01-29T22:23:15.928Z,10.70
2018-01-29T22:25:43.710Z,10.70
2018-01-29T22:28:11.242Z,10.70
2018-01-29T22:30:38.829Z,10.70
2018-01-29T22:33:06.572Z,10.60
2018-01-29T22:35:34.102Z,10.40
2018-01-29T22:38:01.692Z,10.10
2018-01-29T22:40:29.220Z,9.90
2018-01-29T22:42:56.807Z,9.60
2018-01-29T22:45:24.349Z,9.30
2018-01-29T22:47:51.927Z,9.00
2018-01-29T22:50:19.457Z,8.80
2018-01-29T22:52:47.041Z,8.60
2018-01-29T22:55:14.577Z,8.50
2018-01-29T22:57:42.123Z,8.40
2018-01-29T23:00:10.368Z,8.40
2018-01-29T23:02:37.896Z,8.30
2018-01-29T23:05:05.428Z,8.30
2018-01-29T23:07:33.183Z,8.30
2018-01-29T23:10:01.552Z,8.20
2018-01-29T23:12:29.133Z,8.20
2018-01-29T23:14:57.454Z,8.20
2018-01-29T23:17:24.979Z,8.20
2018-01-29T23:19:52.552Z,8.20
2018-01-29T23:22:20.087Z,8.20
2018-01-29T23:24:47.667Z,8.10
2018-01-29T23:27:15.205Z,8.10
2018-01-29T23:29:42.782Z,8.10
2018-01-29T23:32:10.322Z,8.00
2018-01-29T23:34:38.013Z,8.00
2018-01-29T23:37:05.536Z,7.90
2018-01-29T23:39:33.847Z,7.90
2018-01-29T23:42:01.417Z,7.90
2018-01-29T23:44:28.948Z,7.90
2018-01-29T23:46:57.279Z,7.90
2018-01-29T23:49:25.131Z,7.90
2018-01-29T23:51:52.748Z,7.90
2018-01-29T23:54:21.057Z,7.80
2018-01-29T23:56:48.625Z,7.80
2018-01-29T23:59:16.193Z,7.80
